Time;durP1;ratioP1;P1;durP2;ratioP2;P2;SDS_P1;SDS_P2;PMS_P1;PMS_P2;Temp;Humidity;BMP_temperature;BMP_pressure;BME280_temperature;BME280_humidity;BME280_pressure;Samples;Min_cycle;Max_cycle;Signal;HPM_P1;HPM_P2
2023/10/11 05:51:43;;;;;;;;;11.00;10.00;;;;;25.39;38.00;101324.59;5134030;27;45385;-64
2023/10/11 05:54:08;;;;;;;;;11.75;10.25;;;;;25.90;36.97;101315.78;5116219;27;45518;-64
2023/10/11 05:56:38;;;;;;;;;10.00;10.00;;;;;26.07;36.85;101325.06;5114350;27;45357;-65
2023/10/11 05:59:04;;;;;;;;;12.00;7.75;;;;;26.27;35.99;101321.19;5115202;27;46204;-64
2023/10/11 06:01:30;;;;;;;;;11.25;9.50;;;;;26.37;36.03;101319.19;5116353;27;45385;-64
2023/10/11 06:06:38;;;;;;;;;11.75;10.00;;;;;26.38;35.51;101334.66;5091769;27;45620;-64
2023/10/11 06:09:05;;;;;;;;;7.25;7.25;;;;;26.53;35.74;101322.09;5085019;27;45500;-65
2023/10/11 06:11:36;;;;;;;;;10.00;8.75;;;;;26.67;34.92;101340.78;5077264;27;47039;-64
2023/10/11 06:14:05;;;;;;;;;10.00;10.00;;;;;26.52;34.85;101303.00;5076945;27;45348;-64
2023/10/11 06:16:43;;;;;;;;;10.50;9.50;;;;;26.86;35.21;101350.72;5095427;27;45331;-66
2023/10/11 06:19:17;;;;;;;;;10.50;10.50;;;;;26.87;34.68;101359.84;5076594;27;46581;-65
2023/10/11 06:24:36;;;;;;;;;11.00;10.00;;;;;27.10;34.40;101359.16;5093485;27;45326;-67
2023/10/11 06:29:53;;;;;;;;;12.25;10.50;;;;;27.04;34.23;101348.81;5092746;27;45566;-66
2023/10/11 06:32:23;;;;;;;;;14.50;12.50;;;;;27.19;34.18;101364.72;5095183;27;45457;-67
2023/10/11 06:34:50;;;;;;;;;14.25;14.25;;;;;26.90;34.53;101324.59;5094745;27;45358;-66
2023/10/11 06:37:25;;;;;;;;;16.25;13.00;;;;;27.16;34.23;101352.13;5095189;27;45375;-66
2023/10/11 06:44:59;;;;;;;;;10.75;10.75;;;;;26.96;34.35;101365.28;5095115;27;45276;-66
2023/10/11 06:47:27;;;;;;;;;11.75;10.00;;;;;26.75;34.40;101343.59;5095296;27;45472;-66
2023/10/11 06:49:54;;;;;;;;;8.75;7.25;;;;;26.81;33.83;101357.72;5094817;27;45371;-66
2023/10/11 06:52:25;;;;;;;;;11.75;11.50;;;;;26.78;34.58;101353.41;5082408;27;45334;-67
2023/10/11 06:57:39;;;;;;;;;11.75;10.75;;;;;26.72;34.43;101356.78;5081400;28;45324;-65
2023/10/11 07:00:28;;;;;;;;;13.00;10.00;;;;;26.64;34.60;101360.34;5081111;28;45351;-65
2023/10/11 07:05:46;;;;;;;;;10.50;10.50;;;;;26.48;34.90;101365.69;5080483;28;45509;-66
2023/10/11 07:08:20;;;;;;;;;13.25;10.25;;;;;26.48;34.95;101362.94;5081157;28;45327;-66
2023/10/11 07:13:54;;;;;;;;;12.00;12.00;;;;;26.59;35.00;101361.84;5070800;28;45446;-67
2023/10/11 07:16:27;;;;;;;;;10.00;10.00;;;;;26.73;34.54;101361.25;5081017;27;45323;-68
2023/10/11 07:18:59;;;;;;;;;0.50;0.50;;;;;26.77;34.74;101359.06;5080595;27;45272;-66
2023/10/11 07:21:27;;;;;;;;;15.00;11.00;;;;;26.84;34.89;101365.66;5080431;27;45426;-66
2023/10/11 07:29:02;;;;;;;;;12.50;11.00;;;;;26.87;34.64;101368.97;5081109;27;45329;-66
2023/10/11 07:31:32;;;;;;;;;9.50;9.50;;;;;27.00;34.41;101372.16;5080834;27;45444;-66
2023/10/11 07:34:10;;;;;;;;;11.25;10.50;;;;;26.98;34.17;101376.97;5080500;27;46132;-66
2023/10/11 07:36:37;;;;;;;;;11.00;8.75;;;;;27.00;34.61;101374.91;5080034;27;45492;-66
2023/10/11 07:39:14;;;;;;;;;11.50;10.25;;;;;27.05;34.57;101368.94;5080705;28;45306;-66
2023/10/11 07:41:42;;;;;;;;;13.25;9.50;;;;;26.96;34.36;101373.53;5080365;28;45869;-66
2023/10/11 07:44:08;;;;;;;;;12.75;10.50;;;;;26.98;34.74;101371.47;5080453;28;46011;-66
2023/10/11 07:46:33;;;;;;;;;12.00;11.50;;;;;27.15;34.50;101379.81;5062494;28;45284;-65
2023/10/11 07:49:01;;;;;;;;;15.00;12.75;;;;;27.11;34.17;101379.31;5080366;28;45173;-67
2023/10/11 07:51:30;;;;;;;;;12.50;11.25;;;;;27.08;34.74;101360.34;5080491;28;45300;-66
2023/10/11 07:53:56;;;;;;;;;9.00;9.00;;;;;27.27;33.84;101384.03;5080561;28;46459;-66
2023/10/11 07:56:21;;;;;;;;;10.50;10.00;;;;;27.34;34.11;101380.47;5080636;28;45366;-65
2023/10/11 07:58:47;;;;;;;;;11.25;11.25;;;;;27.50;34.01;101382.44;5080785;28;45339;-66
2023/10/11 08:01:15;;;;;;;;;9.25;9.25;;;;;27.57;33.86;101378.03;5079773;28;45385;-65
2023/10/11 08:03:44;;;;;;;;;10.25;10.25;;;;;27.60;33.46;101387.88;5079076;28;46043;-66
2023/10/11 08:06:13;;;;;;;;;12.75;9.50;;;;;27.47;33.65;101374.53;5079909;28;45331;-66
2023/10/11 08:08:40;;;;;;;;;11.75;10.50;;;;;27.60;33.18;101390.63;5079760;27;45323;-66
2023/10/11 08:11:18;;;;;;;;;14.75;10.25;;;;;27.65;33.04;101397.34;5080042;28;45942;-66
2023/10/11 08:13:48;;;;;;;;;9.75;8.75;;;;;27.65;33.26;101372.56;5070106;28;46226;-66
2023/10/11 08:16:17;;;;;;;;;9.75;9.75;;;;;27.74;32.25;101384.47;5080434;27;45373;-65
2023/10/11 08:18:48;;;;;;;;;9.25;9.00;;;;;27.73;31.93;101388.28;5080062;28;45368;-65
2023/10/11 08:21:15;;;;;;;;;10.50;9.25;;;;;27.65;31.67;101386.31;5079587;28;45358;-65
2023/10/11 08:23:44;;;;;;;;;10.00;10.00;;;;;27.59;31.31;101378.72;5079842;27;46187;-66
2023/10/11 08:26:14;;;;;;;;;8.50;6.75;;;;;27.31;30.07;101341.38;5080206;27;45354;-67
2023/10/11 08:28:49;;;;;;;;;6.00;4.75;;;;;27.56;29.90;101372.72;5080132;27;45381;-66
2023/10/11 08:31:35;;;;;;;;;8.50;6.75;;;;;27.48;29.96;101365.22;5079879;27;45542;-65
2023/10/11 08:34:03;;;;;;;;;5.00;5.00;;;;;27.55;29.05;101360.81;5078999;27;46706;-66
2023/10/11 08:36:33;;;;;;;;;7.25;6.00;;;;;27.68;29.01;101360.34;5079877;28;45337;-66
2023/10/11 08:39:08;;;;;;;;;4.25;4.25;;;;;27.56;28.88;101359.75;5061707;28;45403;-67
2023/10/11 08:41:34;;;;;;;;;8.00;6.50;;;;;27.51;28.27;101375.91;5079666;28;45409;-66
2023/10/11 08:44:01;;;;;;;;;8.00;6.00;;;;;27.61;28.35;101367.56;5079499;28;46335;-66
2023/10/11 08:46:32;;;;;;;;;4.75;4.75;;;;;27.53;27.98;101351.81;5079570;28;45279;-66
2023/10/11 08:49:00;;;;;;;;;5.25;5.25;;;;;27.70;28.33;101363.81;5078671;28;45374;-65
2023/10/11 08:51:36;;;;;;;;;6.50;6.00;;;;;27.88;28.25;101369.22;5061183;28;45487;-66
2023/10/11 08:54:03;;;;;;;;;8.75;7.00;;;;;27.73;27.97;101375.34;5060882;28;47135;-67
2023/10/11 08:56:29;;;;;;;;;5.75;4.75;;;;;27.77;27.96;101370.38;5077852;28;45343;-67
2023/10/11 08:58:54;;;;;;;;;8.00;6.00;;;;;27.79;28.00;101369.19;5079322;28;45307;-60
2023/10/11 09:01:24;;;;;;;;;5.50;5.50;;;;;27.47;27.58;101367.13;5079180;28;56257;-60
2023/10/11 09:04:14;;;;;;;;;7.00;7.00;;;;;27.65;27.70;101356.03;5078984;28;45344;-61
2023/10/11 09:06:44;;;;;;;;;5.50;4.50;;;;;27.79;28.01;101362.81;5062093;28;45548;-60
2023/10/11 09:09:32;;;;;;;;;4.50;4.25;;;;;27.83;28.23;101364.19;5079670;28;45367;-60
2023/10/11 09:11:58;;;;;;;;;7.00;4.75;;;;;27.96;27.53;101367.34;5078814;28;45443;-61
2023/10/11 09:14:23;;;;;;;;;10.50;6.50;;;;;27.98;28.01;101357.00;5069280;28;45248;-60
2023/10/11 09:16:50;;;;;;;;;10.50;6.00;;;;;28.36;26.75;101360.19;5079532;27;45264;-60
2023/10/11 09:19:19;;;;;;;;;6.25;6.25;;;;;28.30;26.66;101349.84;5079410;27;45393;-61
2023/10/11 09:22:02;;;;;;;;;5.25;5.25;;;;;28.51;27.00;101355.72;5079125;27;45296;-61
2023/10/11 09:24:43;;;;;;;;;6.25;4.75;;;;;28.35;27.46;101361.22;5079113;28;46742;-61
2023/10/11 09:27:18;;;;;;;;;6.25;5.00;;;;;28.50;28.00;101356.75;5079001;27;45471;-60
2023/10/11 09:29:48;;;;;;;;;0.00;0.00;;;;;28.58;28.32;101370.56;5079293;28;45260;-59
2023/10/11 09:32:19;;;;;;;;;5.00;5.00;;;;;28.65;27.94;101359.72;5079215;28;45386;-60
2023/10/11 09:34:45;;;;;;;;;5.50;5.50;;;;;28.83;28.10;101355.75;5078650;28;46185;-60
2023/10/11 09:37:11;;;;;;;;;6.50;4.25;;;;;28.81;28.36;101349.56;5078985;28;45335;-60
2023/10/11 09:39:43;;;;;;;;;5.25;5.25;;;;;28.73;29.21;101359.69;5078347;28;45493;-60
2023/10/11 09:42:16;;;;;;;;;5.75;5.75;;;;;28.69;29.49;101361.06;5079247;28;45655;-60
2023/10/11 09:44:45;;;;;;;;;10.50;7.25;;;;;28.73;29.52;101349.53;5078530;28;46917;-60
2023/10/11 09:47:16;;;;;;;;;6.00;5.50;;;;;28.89;28.98;101344.03;5078903;28;45437;-61
2023/10/11 09:49:42;;;;;;;;;7.00;5.75;;;;;28.94;28.91;101360.91;5078485;28;45163;-60
2023/10/11 09:52:11;;;;;;;;;6.25;5.00;;;;;29.02;29.17;101360.03;5078769;28;45253;-61
2023/10/11 09:54:39;;;;;;;;;4.75;4.75;;;;;29.17;29.49;101358.28;5078717;28;46089;-60
2023/10/11 09:57:27;;;;;;;;;7.25;5.75;;;;;29.33;29.01;101363.78;5078796;28;45243;-61
2023/10/11 10:00:08;;;;;;;;;6.50;5.50;;;;;29.13;29.34;101339.47;5078878;28;45390;-60
2023/10/11 10:02:46;;;;;;;;;5.75;5.75;;;;;29.37;29.13;101363.44;5078588;28;46112;-61
2023/10/11 10:05:12;;;;;;;;;12.00;8.50;;;;;29.41;29.44;101357.38;5059749;28;47215;-60
2023/10/11 10:10:11;;;;;;;;;6.00;6.00;;;;;29.64;29.59;101354.69;5078930;28;45423;-60
2023/10/11 10:12:55;;;;;;;;;7.00;6.00;;;;;29.79;29.64;101358.41;5074161;28;45284;-61
2023/10/11 10:15:28;;;;;;;;;10.00;8.25;;;;;29.80;29.89;101362.03;5075867;28;45448;-59
2023/10/11 10:17:56;;;;;;;;;10.25;4.75;;;;;29.76;30.27;101339.44;5077253;28;45388;-61
2023/10/11 10:20:34;;;;;;;;;3.75;3.75;;;;;29.92;30.20;101344.88;5078357;28;45386;-60
2023/10/11 10:23:14;;;;;;;;;9.25;6.25;;;;;29.86;30.04;101329.00;5078589;27;45408;-60
2023/10/11 10:26:13;;;;;;;;;5.75;4.75;;;;;29.87;29.78;101313.28;5078553;27;46381;-61
2023/10/11 10:28:39;;;;;;;;;4.75;4.75;;;;;30.26;29.28;101346.41;5082062;27;45212;-60
2023/10/11 10:31:12;;;;;;;;;7.00;7.00;;;;;30.17;28.83;101330.94;5082254;27;45357;-60
2023/10/11 10:33:39;;;;;;;;;6.25;6.25;;;;;30.47;28.51;101341.06;5081866;27;45291;-60
2023/10/11 10:36:28;;;;;;;;;9.75;7.00;;;;;30.54;28.99;101332.94;5081742;27;46392;-59
2023/10/11 10:39:00;;;;;;;;;6.50;6.00;;;;;30.59;29.25;101347.91;5081291;27;45386;-61
2023/10/11 10:41:36;;;;;;;;;9.50;4.75;;;;;30.70;29.27;101341.09;5081705;28;45686;-60
2023/10/11 10:44:11;;;;;;;;;10.25;7.25;;;;;30.91;29.43;101343.13;5081775;28;45538;-60
2023/10/11 10:46:59;;;;;;;;;5.50;4.50;;;;;31.04;28.97;101338.66;5081741;28;46054;-61
2023/10/11 10:49:47;;;;;;;;;8.75;6.50;;;;;31.10;28.16;101337.06;5062434;28;45566;-60
2023/10/11 10:52:21;;;;;;;;;7.00;7.00;;;;;31.09;28.33;101327.91;5081361;28;45492;-59
2023/10/11 10:55:01;;;;;;;;;10.75;6.75;;;;;31.45;28.64;101332.69;5080601;28;45450;-60
2023/10/11 10:57:31;;;;;;;;;8.75;7.75;;;;;31.42;28.16;101333.06;5081238;28;46145;-60
2023/10/11 11:00:05;;;;;;;;;11.25;8.75;;;;;31.56;28.17;101327.47;5080070;28;45603;-60
2023/10/11 11:02:34;;;;;;;;;7.00;7.00;;;;;31.86;27.36;101306.16;5081834;27;45362;-60
2023/10/11 11:05:00;;;;;;;;;7.00;4.00;;;;;32.20;27.22;101312.94;5080973;27;45425;-60
2023/10/11 11:07:26;;;;;;;;;7.25;7.25;;;;;32.74;26.83;101313.28;5081057;27;46210;-59
2023/10/11 11:09:54;;;;;;;;;7.75;7.75;;;;;33.20;26.02;101309.94;5081292;28;45274;-60
2023/10/11 11:12:28;;;;;;;;;9.75;6.00;;;;;33.59;25.52;101298.22;5079446;28;45295;-59
2023/10/11 11:14:54;;;;;;;;;8.75;6.00;;;;;33.91;24.55;101305.84;5074526;28;45399;-60
2023/10/11 11:17:20;;;;;;;;;7.00;7.00;;;;;34.20;24.28;101298.22;5079572;28;45363;-59
2023/10/11 11:20:12;;;;;;;;;6.00;6.00;;;;;34.48;24.29;101290.56;5079925;28;45346;-60
2023/10/11 11:22:38;;;;;;;;;3.75;3.50;;;;;34.55;24.05;101289.47;5071536;28;45382;-60
2023/10/11 11:25:27;;;;;;;;;5.75;5.50;;;;;34.94;23.70;101296.13;5062755;28;46212;-61
2023/10/11 11:28:24;;;;;;;;;5.25;4.75;;;;;35.56;23.06;101289.09;5061700;28;47374;-60
2023/10/11 11:31:04;;;;;;;;;8.00;6.75;;;;;35.76;22.62;101281.53;5078582;28;45589;-58
2023/10/11 11:33:36;;;;;;;;;7.00;7.00;;;;;36.22;22.79;101277.63;5080929;28;45382;-60
2023/10/11 11:36:11;;;;;;;;;5.25;4.50;;;;;36.70;22.35;101283.50;5096733;27;46136;-60
2023/10/11 11:38:37;;;;;;;;;6.75;6.25;;;;;36.76;21.96;101280.63;5078878;28;46140;-60
2023/10/11 11:41:15;;;;;;;;;5.75;5.00;;;;;37.39;21.35;101280.41;5080502;28;45304;-60
2023/10/11 11:43:40;;;;;;;;;7.25;7.25;;;;;38.38;20.50;101261.38;5079139;28;45388;-60
2023/10/11 11:46:06;;;;;;;;;10.25;8.00;;;;;39.28;19.44;101275.94;5080282;28;45786;-59
2023/10/11 11:48:41;;;;;;;;;8.00;5.00;;;;;39.64;18.97;101274.78;5080308;27;46603;-61
2023/10/11 11:51:13;;;;;;;;;5.50;5.50;;;;;40.12;18.60;101251.00;5066986;28;45435;-60
2023/10/11 11:53:41;;;;;;;;;4.50;4.50;;;;;40.41;17.92;101244.22;5072675;28;45338;-59
2023/10/11 11:56:08;;;;;;;;;4.75;4.00;;;;;40.38;18.09;101242.81;5080547;28;45548;-60
2023/10/11 11:58:34;;;;;;;;;3.75;3.25;;;;;40.01;18.31;101233.97;5080470;28;45319;-66
2023/10/11 12:01:08;;;;;;;;;5.00;5.00;;;;;40.32;17.80;101226.13;5058732;28;45597;-65
2023/10/11 12:03:36;;;;;;;;;7.00;5.00;;;;;40.76;18.03;101230.78;5059938;28;45399;-64
2023/10/11 12:06:02;;;;;;;;;8.25;6.50;;;;;41.47;16.82;101214.91;5059005;28;45574;-65
2023/10/11 12:08:31;;;;;;;;;6.25;5.75;;;;;41.67;16.59;101225.59;5059718;28;46636;-65
2023/10/11 12:10:57;;;;;;;;;6.75;6.75;;;;;41.64;16.73;101214.84;5059792;28;45454;-65
2023/10/11 12:13:25;;;;;;;;;5.75;5.75;;;;;42.07;16.88;101211.06;5050511;28;45327;-65
2023/10/11 12:15:57;;;;;;;;;8.75;6.50;;;;;41.98;17.00;101198.59;5060214;28;45487;-65
2023/10/11 12:18:33;;;;;;;;;7.25;5.25;;;;;41.79;16.83;101192.47;5059383;28;46344;-66
2023/10/11 12:21:10;;;;;;;;;5.00;5.00;;;;;41.55;16.46;101203.19;5060030;28;45541;-66
2023/10/11 12:23:36;;;;;;;;;3.50;3.50;;;;;40.46;17.16;101188.13;5059430;28;45380;-64
2023/10/11 12:26:04;;;;;;;;;4.75;4.75;;;;;40.31;17.46;101174.69;5059839;28;45473;-66
2023/10/11 12:28:29;;;;;;;;;6.00;6.00;;;;;38.80;18.39;101187.31;5059875;28;46085;-66
2023/10/11 12:30:54;;;;;;;;;6.25;6.25;;;;;38.91;19.00;101196.81;5059902;28;45388;-66
2023/10/11 12:33:20;;;;;;;;;7.75;4.00;;;;;38.68;18.87;101183.69;5041982;28;45321;-65
2023/10/11 12:35:45;;;;;;;;;6.75;6.25;;;;;38.60;18.98;101179.31;5059203;28;56342;-65
2023/10/11 12:38:12;;;;;;;;;5.50;3.75;;;;;38.53;18.98;101192.63;5059553;28;46114;-65
2023/10/11 12:40:39;;;;;;;;;1.75;1.75;;;;;38.20;19.75;101179.13;5058586;28;45336;-65
2023/10/11 12:43:07;;;;;;;;;6.25;5.00;;;;;38.09;19.73;101180.00;5059557;28;45472;-65
2023/10/11 12:45:34;;;;;;;;;5.25;3.75;;;;;37.77;20.10;101181.34;5059589;28;45386;-65
2023/10/11 12:48:02;;;;;;;;;7.25;6.00;;;;;37.78;20.00;101178.28;5058810;28;45327;-65
2023/10/11 12:50:27;;;;;;;;;6.00;6.00;;;;;37.55;20.25;101181.00;5058631;28;45344;-67
2023/10/11 12:52:53;;;;;;;;;5.75;5.25;;;;;37.39;20.31;101181.66;5059465;28;45311;-67
2023/10/11 12:55:20;;;;;;;;;7.00;6.50;;;;;36.67;20.92;101184.22;5059459;28;47131;-63
2023/10/11 12:57:46;;;;;;;;;5.50;5.00;;;;;36.18;21.78;101173.03;5057057;28;45484;-64
2023/10/11 13:01:12;;;;;;;;;5.75;4.25;;;;;36.13;21.85;101168.16;5058851;28;45387;-64
2023/10/11 13:03:29;;;;;;;;;5.25;5.25;;;;;36.23;21.76;101170.47;5050123;28;45347;-64
2023/10/11 13:05:52;;;;;;;;;6.75;5.50;;;;;36.16;21.71;101136.97;5058288;28;45541;-63
2023/10/11 13:08:24;;;;;;;;;6.50;5.25;;;;;36.43;21.62;101142.31;5059143;28;45395;-63
2023/10/11 13:10:50;;;;;;;;;5.25;4.75;;;;;36.62;21.80;101158.03;5058834;28;45304;-63
2023/10/11 13:13:17;;;;;;;;;5.00;5.00;;;;;36.63;21.42;101149.41;5048955;28;45351;-64
2023/10/11 13:16:03;;;;;;;;;8.50;5.50;;;;;36.84;21.34;101162.09;5044471;28;47601;-64
2023/10/11 13:18:37;;;;;;;;;5.75;5.75;;;;;37.24;20.55;101153.25;5058893;28;46051;-64
2023/10/11 13:21:11;;;;;;;;;5.25;5.25;;;;;36.98;20.34;101144.09;5058802;28;45348;-64
2023/10/11 13:23:36;;;;;;;;;6.75;6.00;;;;;37.17;20.52;101144.97;5059041;28;45321;-63
2023/10/11 13:26:08;;;;;;;;;4.25;4.25;;;;;37.43;20.57;101143.75;5058916;28;45439;-64
2023/10/11 13:28:37;;;;;;;;;3.00;3.00;;;;;37.98;20.16;101144.38;5059005;28;46241;-64
2023/10/11 13:31:04;;;;;;;;;8.00;6.00;;;;;38.33;19.54;101138.00;5058905;28;45355;-63
2023/10/11 13:33:30;;;;;;;;;6.00;4.75;;;;;37.85;19.66;101139.88;5058226;28;45505;-63
2023/10/11 13:36:00;;;;;;;;;6.75;5.25;;;;;37.94;20.03;101133.94;5058683;28;45237;-66
2023/10/11 13:38:30;;;;;;;;;4.50;4.50;;;;;38.01;19.42;101132.72;5058802;28;46337;-64
2023/10/11 13:40:56;;;;;;;;;7.00;5.00;;;;;38.13;19.29;101132.75;5058515;28;45297;-63
2023/10/11 13:43:22;;;;;;;;;7.25;7.25;;;;;38.21;18.71;101132.38;5057487;28;45367;-64
2023/10/11 13:45:56;;;;;;;;;6.00;6.00;;;;;38.47;18.72;101140.28;5058471;28;45264;-64
2023/10/11 13:48:27;;;;;;;;;4.50;4.50;;;;;38.19;18.76;101112.19;5058527;28;45374;-64
2023/10/11 13:50:54;;;;;;;;;5.00;5.00;;;;;38.66;18.83;101128.97;5058500;28;45450;-63
2023/10/11 13:53:20;;;;;;;;;6.25;4.25;;;;;38.90;18.57;101128.69;5058639;28;45398;-64
2023/10/11 13:55:50;;;;;;;;;7.00;5.25;;;;;38.78;18.69;101124.22;5058167;28;45344;-63
2023/10/11 13:58:16;;;;;;;;;5.00;5.00;;;;;38.97;18.52;101131.38;5058441;28;45403;-65
2023/10/11 14:05:44;;;;;;;;;5.50;4.50;;;;;38.62;18.57;101111.81;5061553;28;45269;-62
2023/10/11 14:08:25;;;;;;;;;5.75;5.75;;;;;38.87;18.49;101103.97;5062022;28;47158;-63
2023/10/11 14:10:54;;;;;;;;;6.75;5.75;;;;;38.22;18.28;101101.34;5043528;28;45440;-65
2023/10/11 14:13:24;;;;;;;;;7.00;5.25;;;;;37.80;19.18;101105.28;5051749;28;45390;-64
2023/10/11 14:15:57;;;;;;;;;5.75;5.25;;;;;37.94;19.11;101103.13;5061895;28;45470;-62
2023/10/11 14:18:27;;;;;;;;;6.75;5.00;;;;;37.88;19.21;101099.34;5061432;28;47420;-64
2023/10/11 14:20:56;;;;;;;;;5.25;5.25;;;;;37.63;18.94;101096.75;5056188;28;45358;-63
2023/10/11 14:23:29;;;;;;;;;3.00;2.00;;;;;37.46;19.48;101090.09;5049460;28;45465;-64
2023/10/11 14:25:58;;;;;;;;;7.00;6.00;;;;;37.34;19.36;101086.44;5049451;28;45419;-63
2023/10/11 14:28:26;;;;;;;;;8.50;5.50;;;;;37.50;19.29;101071.75;5059316;28;45304;-64
2023/10/11 14:30:52;;;;;;;;;5.25;5.25;;;;;37.67;19.09;101081.19;5061097;28;45438;-64
2023/10/11 14:33:18;;;;;;;;;6.75;4.00;;;;;37.66;19.21;101081.44;5061441;28;45547;-65
2023/10/11 14:35:46;;;;;;;;;4.50;4.50;;;;;37.80;19.06;101074.50;5061617;28;45327;-64
2023/10/11 14:38:14;;;;;;;;;5.00;5.00;;;;;38.18;18.87;101085.28;5061393;28;45354;-65
2023/10/11 14:40:43;;;;;;;;;6.25;5.50;;;;;38.17;18.51;101070.41;5061472;28;45232;-65
2023/10/11 14:43:11;;;;;;;;;8.25;5.25;;;;;37.69;18.90;101058.53;5060053;28;45332;-64
2023/10/11 14:45:40;;;;;;;;;4.25;3.75;;;;;37.45;18.82;101089.25;5077075;28;46191;-64
2023/10/11 14:48:08;;;;;;;;;4.00;4.00;;;;;37.01;19.55;101068.13;5061275;28;45335;-64
2023/10/11 14:50:37;;;;;;;;;4.50;4.50;;;;;37.75;19.07;101088.38;5061014;28;45386;-63
2023/10/11 14:53:02;;;;;;;;;5.25;3.75;;;;;37.74;19.34;101093.13;5061328;28;45331;-64
2023/10/11 14:55:35;;;;;;;;;6.50;6.50;;;;;37.90;18.76;101096.31;5061195;28;45308;-64
2023/10/11 14:58:00;;;;;;;;;4.50;4.00;;;;;37.58;19.30;101092.94;5061305;28;46268;-65
2023/10/11 15:00:32;;;;;;;;;3.75;2.25;;;;;37.67;18.74;101102.72;5061294;28;45365;-64
2023/10/11 15:02:59;;;;;;;;;6.00;4.25;;;;;37.58;18.54;101092.94;5061090;28;45363;-64
2023/10/11 15:05:31;;;;;;;;;5.75;2.50;;;;;37.57;18.75;101097.66;5059166;28;45553;-65
2023/10/11 15:07:57;;;;;;;;;7.75;5.75;;;;;37.29;19.10;101100.25;5058173;28;45421;-64
2023/10/11 15:10:23;;;;;;;;;5.75;5.75;;;;;37.30;19.40;101097.22;5060893;28;45371;-64
2023/10/11 15:12:50;;;;;;;;;4.50;4.50;;;;;36.97;19.21;101094.88;5060454;28;45371;-64
2023/10/11 15:15:19;;;;;;;;;7.50;6.50;;;;;36.70;19.53;101094.34;5060830;28;46077;-65
2023/10/11 15:17:47;;;;;;;;;6.75;5.75;;;;;36.42;19.62;101065.19;5060962;28;45655;-63
2023/10/11 15:20:13;;;;;;;;;5.00;5.00;;;;;36.09;19.98;101079.47;5041339;28;45305;-63
2023/10/11 15:22:40;;;;;;;;;9.50;7.00;;;;;36.35;19.84;101098.78;5060780;28;45666;-64
2023/10/11 15:25:08;;;;;;;;;8.00;7.25;;;;;36.20;19.96;101085.22;5060765;28;45336;-64
2023/10/11 15:27:34;;;;;;;;;6.00;4.25;;;;;36.36;20.08;101079.03;5060568;28;45354;-64
2023/10/11 15:29:59;;;;;;;;;4.75;4.25;;;;;36.13;20.08;101070.44;5060658;28;45294;-63
2023/10/11 15:32:25;;;;;;;;;4.25;4.25;;;;;36.32;19.64;101066.63;5060854;28;45346;-64
2023/10/11 15:34:54;;;;;;;;;5.00;5.00;;;;;36.35;19.84;101068.06;5060226;28;45304;-63
2023/10/11 15:37:20;;;;;;;;;5.00;5.00;;;;;36.20;20.06;101070.41;5060826;28;46086;-64
2023/10/11 15:39:45;;;;;;;;;4.25;4.25;;;;;36.38;19.89;101057.31;5060147;28;45371;-64
2023/10/11 15:42:11;;;;;;;;;4.75;4.75;;;;;36.52;19.66;101062.72;5059556;28;45395;-64
2023/10/11 15:44:38;;;;;;;;;4.00;4.00;;;;;36.60;19.49;101079.16;5060437;28;45435;-63
2023/10/11 15:47:03;;;;;;;;;5.00;5.00;;;;;35.89;19.77;101069.38;5059691;28;46186;-64
2023/10/11 15:49:31;;;;;;;;;4.75;4.00;;;;;35.94;20.01;101074.25;5059791;28;45233;-64
2023/10/11 15:51:59;;;;;;;;;6.75;5.75;;;;;35.93;20.05;101064.19;5060584;28;45368;-65
2023/10/11 15:54:25;;;;;;;;;4.25;2.75;;;;;35.62;19.96;101065.06;5057375;28;45319;-64
2023/10/11 15:56:52;;;;;;;;;4.00;4.00;;;;;35.35;20.12;101024.53;5052269;28;45437;-64
2023/10/11 15:59:18;;;;;;;;;6.00;6.00;;;;;35.66;20.08;101066.31;5067736;28;45380;-64
2023/10/11 16:01:43;;;;;;;;;7.00;5.00;;;;;35.65;19.90;101084.13;5052525;28;45343;-67
2023/10/11 16:04:11;;;;;;;;;5.50;4.75;;;;;35.54;20.14;101070.94;5059704;28;45485;-66
2023/10/11 16:06:37;;;;;;;;;6.75;5.25;;;;;35.75;20.32;101066.91;5046595;28;46932;-64
2023/10/11 16:09:11;;;;;;;;;7.00;5.75;;;;;35.30;20.45;101046.66;5057026;28;45327;-65
2023/10/11 16:11:40;;;;;;;;;1.50;1.00;;;;;35.25;20.18;101052.91;5060160;28;45409;-65
2023/10/11 16:14:05;;;;;;;;;7.75;6.00;;;;;35.35;20.70;101060.78;5050079;28;45461;-65
2023/10/11 16:16:34;;;;;;;;;6.50;5.25;;;;;35.29;20.40;101056.97;5060061;28;46308;-65
2023/10/11 16:19:00;;;;;;;;;6.00;4.50;;;;;35.09;20.58;101065.41;5059707;28;45341;-65
2023/10/11 16:21:27;;;;;;;;;8.25;6.25;;;;;34.90;21.03;101058.84;5060162;28;45401;-65
2023/10/11 16:23:53;;;;;;;;;7.00;5.00;;;;;34.95;20.89;101068.50;5057994;28;45848;-65
2023/10/11 16:26:19;;;;;;;;;5.50;4.00;;;;;34.87;21.08;101062.09;5059565;28;45391;-66
2023/10/11 16:28:44;;;;;;;;;6.00;3.25;;;;;34.81;21.42;101054.63;5059640;28;45431;-65
2023/10/11 16:31:12;;;;;;;;;4.75;3.75;;;;;34.56;21.09;101059.19;5059042;28;45335;-65
2023/10/11 16:33:38;;;;;;;;;5.00;5.00;;;;;34.46;21.32;101054.06;5059631;28;45487;-65
2023/10/11 16:36:05;;;;;;;;;5.00;4.00;;;;;34.39;21.28;101075.53;5059331;28;45328;-65
2023/10/11 16:38:34;;;;;;;;;7.00;3.00;;;;;34.18;21.80;101079.41;5059934;28;45394;-66
2023/10/11 16:41:04;;;;;;;;;5.50;4.25;;;;;34.05;21.72;101071.06;5059731;28;45443;-64
2023/10/11 16:43:31;;;;;;;;;6.00;5.75;;;;;33.73;21.67;101050.56;5058831;28;45443;-64
2023/10/11 16:45:57;;;;;;;;;5.25;5.25;;;;;33.57;22.08;101070.41;5057759;28;46209;-64
2023/10/11 16:48:23;;;;;;;;;5.50;5.50;;;;;33.48;21.95;101068.06;5059442;28;45413;-65
2023/10/11 16:50:48;;;;;;;;;5.75;5.50;;;;;33.72;22.36;101075.75;5041328;28;45451;-64
2023/10/11 16:53:14;;;;;;;;;6.50;5.00;;;;;33.47;22.01;101024.63;5059763;28;45309;-64
2023/10/11 16:55:40;;;;;;;;;6.75;6.00;;;;;33.48;22.02;101068.91;5040754;28;45895;-64
2023/10/11 16:58:07;;;;;;;;;4.75;3.25;;;;;33.56;21.95;101068.69;5059522;28;45292;-64
2023/10/11 17:00:33;;;;;;;;;6.00;6.00;;;;;33.56;22.53;101065.91;5059441;28;45269;-64
2023/10/11 17:03:03;;;;;;;;;5.00;4.25;;;;;33.45;22.45;101066.53;5059235;28;45545;-61
2023/10/11 17:05:34;;;;;;;;;5.00;5.00;;;;;33.37;22.51;101062.03;5058770;28;45481;-64
2023/10/11 17:08:01;;;;;;;;;8.00;6.00;;;;;33.50;22.63;101058.44;5041031;28;45714;-63
2023/10/11 17:10:27;;;;;;;;;5.50;5.50;;;;;33.53;22.05;101058.00;5059106;28;45463;-63
2023/10/11 17:12:54;;;;;;;;;5.00;5.00;;;;;33.47;22.13;101056.06;5052216;28;45529;-63
2023/10/11 17:15:24;;;;;;;;;8.50;6.00;;;;;33.49;22.33;101055.88;5054652;28;45437;-64
2023/10/11 17:17:50;;;;;;;;;5.00;5.00;;;;;33.51;22.80;101057.38;5059227;28;45335;-63
2023/10/11 17:20:15;;;;;;;;;7.25;6.50;;;;;33.47;23.00;101056.06;5058690;28;45305;-63
2023/10/11 17:22:50;;;;;;;;;6.50;5.75;;;;;33.41;22.28;101063.34;5059141;28;45606;-64
2023/10/11 17:25:16;;;;;;;;;8.75;7.00;;;;;33.32;22.29;101064.63;5057914;28;47335;-64
2023/10/11 17:27:42;;;;;;;;;12.75;6.00;;;;;33.21;22.91;101056.00;5059064;28;45402;-63
2023/10/11 17:30:12;;;;;;;;;9.00;5.75;;;;;33.17;22.90;101063.91;5058963;28;45351;-63
2023/10/11 17:32:41;;;;;;;;;9.25;7.50;;;;;33.17;23.17;101063.06;5058985;28;45296;-64
2023/10/11 17:35:08;;;;;;;;;4.25;3.00;;;;;33.06;22.87;101057.03;5058227;28;45389;-63
2023/10/11 17:37:37;;;;;;;;;5.00;5.00;;;;;33.06;23.09;101070.06;5058793;28;45509;-62
2023/10/11 17:40:03;;;;;;;;;5.50;4.00;;;;;32.92;22.99;101063.59;5058847;28;45393;-63
2023/10/11 17:42:29;;;;;;;;;8.25;6.00;;;;;32.73;23.08;101033.88;5058539;28;46444;-63
2023/10/11 17:44:54;;;;;;;;;5.50;5.00;;;;;32.91;23.18;101066.63;5058820;28;45304;-63
2023/10/11 17:47:20;;;;;;;;;5.50;5.50;;;;;32.98;23.30;101073.91;5058986;28;45331;-62
2023/10/11 17:49:45;;;;;;;;;7.25;7.25;;;;;32.98;23.67;101076.69;5058676;28;45323;-63
2023/10/11 17:52:11;;;;;;;;;10.25;8.75;;;;;32.93;23.92;101067.25;5057548;28;46167;-63
2023/10/11 17:54:37;;;;;;;;;5.00;5.00;;;;;32.88;23.59;101075.34;5058764;28;46083;-63
2023/10/11 17:57:04;;;;;;;;;8.50;7.25;;;;;32.87;23.63;101059.75;5058638;28;45382;-62
2023/10/11 17:59:30;;;;;;;;;6.50;6.50;;;;;32.88;23.98;101075.34;5058694;28;45408;-62